x

Port Colborne (45142) Wave Buoy

1:00am - Sat 26th Jul 2014 All times are CDT. -5 hours from GMT.

  • Sig Wave height 1.6ft
  • Peak Period 4s
  • Wind
    11mph, 13mph gusts
  • Sea Temp 71°f
  • Air Temp 70°f
  • Sea Pressure 1014.3mb
  • Port Colborne
  • Port Colborne

More Historic Weather Station data

Upgrade to MSW Pro to gain access to the past 30 days of data for over 8000 Wavebouys and Weather Stations around the globe.

Join Pro

Comparision Forecast

View Surf forecast
   
Sat 07/26 1:00am 1.6ft 4s 11 13 mph 1014.3mb 71f 70f
12:00am 1.6ft 4s 13 18 mph 1014.9mb 71f 70f
Fri 07/25 11:00pm 1.6ft 3s 13 16 mph 1014.8mb 71f 70f
10:00pm 1.6ft 4s 13 16 mph 1014.8mb 71f 70f
9:00pm 1.6ft 4s 16 18 mph 1015mb 71f 70f
8:00pm 1.6ft 4s 13 18 mph 1015mb 71f 70f
7:00pm 2.5ft 4s 13 16 mph 1015mb 71f 70f
6:00pm 2.5ft 4s 16 18 mph 1015mb 71f 70f
5:00pm 2.5ft 4s 18 20 mph 1015.4mb 72f 70f
4:00pm 2.5ft 4s 18 20 mph 1015.5mb 72f 69f
3:00pm 2ft 4s 18 22 mph 1015.8mb 72f 69f
2:00pm 1.3ft 3s 18 22 mph 1016.4mb 72f 69f
1:00pm 1ft 3s 13 18 mph 1016.5mb 72f 68f
12:00pm 1.3ft 3s 9 13 mph 1017mb 72f 68f
11:00am 1.3ft 3s 11 16 mph 1018mb 72f 68f
10:00am 1ft 3s 13 16 mph 1018.4mb 72f 68f
9:00am 1ft 3s 11 13 mph 1018.2mb 72f 67f
8:00am 1ft 3s 11 13 mph 1018.1mb 71f 67f
7:00am 1ft 3s 11 13 mph 1018.4mb 71f 66f
6:00am 0.7ft 3s 9 13 mph 1018.1mb 71f 66f
5:00am 0.7ft 3s 9 11 mph 1017.6mb 71f 67f
4:00am 1ft 3s  -  2 mph 1016.8mb 71f 65f
3:00am 1ft 4s 4
mph
1016.6mb 71f 65f
2:00am 1.3ft 3s 9 11 mph 1016.6mb 71f 67f
1:00am 1ft 3s 11 13 mph 1016.7mb 71f 68f
12:00am 1ft 3s 11 13 mph 1017.2mb 71f 68f
Thu 07/24 11:00pm 0.7ft 3s 11 13 mph 1017.4mb 71f 68f
10:00pm 0.3ft 2s 11 13 mph 1017.2mb 72f 68f
9:00pm 0.3ft 2s 11 13 mph 1017mb 72f 69f
8:00pm 0.3ft 2s 2 4 mph 1016mb 72f 70f
7:00pm 0.3ft 2s 7 9 mph 1015.7mb 72f 70f
6:00pm 0.3ft 2s 7 9 mph 1016.2mb 73f 70f
5:00pm 0.3ft 2s 7 9 mph 1016.2mb 73f 70f
4:00pm 0.3ft 2s 7 9 mph 1016.6mb 73f 69f
3:00pm 0.7ft 2s 7 9 mph 1017.1mb 73f 68f
2:00pm 0.7ft 2s 9 11 mph 1017.4mb 72f 67f
1:00pm 0.7ft 2s 9 11 mph 1017.8mb 72f 66f
12:00pm 0.7ft 2s 9 13 mph 1018mb 72f 66f
11:00am 0.7ft 3s 11 13 mph 1018mb 72f 65f
10:00am 1ft 3s 9 13 mph 1018mb 72f 65f
9:00am 1ft 3s 9 13 mph 1017.9mb 71f 64f
8:00am 1.3ft 3s 13 18 mph 1017.8mb 71f 63f
7:00am 1.3ft 3s 16 18 mph 1017.5mb 71f 63f
6:00am 1.3ft 3s 16 18 mph 1017.2mb 71f 64f
5:00am 1.3ft 3s 16 18 mph 1016.3mb 71f 64f
4:00am 1.3ft 3s 16 18 mph 1015.9mb 71f 64f
3:00am 1.6ft 3s 20 25 mph 1015.3mb 71f 65f
2:00am 1.6ft 3s 18 22 mph 1015.2mb 71f 64f
1:00am 1.3ft 3s 18 20 mph 1015.3mb 71f 65f
12:00am 1.3ft 2s 16 20 mph 1015.4mb 71f 66f
Wed 07/23 11:00pm 1.3ft 5s 16 18 mph 1015.8mb 71f 66f
10:00pm 1.3ft 5s 13 18 mph 1015.9mb 71f 67f
9:00pm 1.3ft 5s 11 16 mph 1016mb 71f 67f
8:00pm 2ft 3s 16 18 mph 1015.6mb 71f 67f
7:00pm 2.5ft 3s 18 22 mph 1015.1mb 72f 67f
6:00pm 2.5ft 3s 18 22 mph 1014.3mb 72f 68f
5:00pm  -   -  18
mph
1013.6mb - 70f
4:00pm 1.6ft 5s 18 20 mph 1013.5mb 73f 71f
3:00pm 1.6ft 4s 7 11 mph 1013.4mb 73f 72f
2:00pm 1.6ft 4s 7 9 mph 1013.8mb 73f 71f
1:00pm 1.6ft 4s 11 13 mph 1013.5mb 73f 70f
12:00pm 1.6ft 4s 13 16 mph 1012.9mb 72f 70f
11:00am 1.6ft 4s 16 18 mph 1012.6mb 73f 69f
10:00am 2ft 4s 16 25 mph 1012.2mb 73f 72f
9:00am 2.5ft 4s 16 18 mph 1011.9mb 73f 73f
8:00am 2.5ft 4s 18 20 mph 1011.9mb 73f 73f
7:00am 2.5ft 4s 18 20 mph 1011.8mb 73f 74f
6:00am 2.5ft 4s 18 22 mph 1011.2mb 73f 74f
5:00am 2.5ft 4s 18 22 mph 1011mb 73f 75f
4:00am 1.6ft 3s 18 22 mph 1011.4mb 73f 76f
3:00am 1.3ft 3s 18 22 mph 1010.9mb 73f 77f
2:00am 1ft 2s 18 20 mph 1011.4mb 74f 76f
1:00am 0.7ft 2s 11 13 mph 1012.5mb 74f 76f
12:00am 0.3ft 2s 11 13 mph 1013.4mb 75f 76f
Tue 07/22 11:00pm 0.3ft 2s 9 11 mph 1013.7mb 75f 76f
10:00pm 0.3ft 2s 7 9 mph 1014.2mb 75f 76f
9:00pm 0.3ft 2s 9 11 mph 1014mb 76f 77f
8:00pm 0.3ft 3s 9 11 mph 1014.3mb 76f 77f
7:00pm 0.3ft 4s 9
mph
1015.2mb 76f 77f
6:00pm 0.3ft 4s 7 9 mph 1015.4mb 77f 77f
5:00pm 0.3ft 3s 4
mph
1015.7mb 78f 77f
4:00pm 0.3ft 4s 4
mph
1016.1mb 78f 78f
3:00pm 0.3ft 2s 4
mph
1016.4mb 78f 77f
2:00pm  -  3s 4 7 mph 1016.8mb 78f 77f
1:00pm 0.3ft 4s 4
mph
1017.3mb 77f 76f
12:00pm  -  2s 4
mph
1017.9mb 78f 75f
11:00am  -  4s 4
mph
1018.9mb 76f 74f
10:00am 0.3ft 4s 2
mph
1019.5mb 75f 73f
9:00am 0.3ft 4s 2
mph
1019.7mb 73f 72f
8:00am 0.3ft 2s 4
mph
1020mb 73f 71f